Time;durP1;ratioP1;P1;durP2;ratioP2;P2;SDS_P1;SDS_P2;PMS_P1;PMS_P2;Temp;Humidity;BMP_temperature;BMP_pressure;BME280_temperature;BME280_humidity;BME280_pressure;Samples;Min_cycle;Max_cycle;Signal;HPM_P1;HPM_P2
2021/10/08 00:01:31;;;;;;;15.60;12.87;;;12.90;99.90;;;;;;5053799;28;20422;-65
2021/10/08 00:03:57;;;;;;;14.40;12.50;;;12.90;99.90;;;;;;5036945;28;20932;-65
2021/10/08 00:06:23;;;;;;;13.70;11.97;;;12.90;99.90;;;;;;5054245;28;20175;-65
2021/10/08 00:08:49;;;;;;;22.10;12.87;;;12.90;99.90;;;;;;5054826;28;20415;-65
2021/10/08 00:11:16;;;;;;;18.47;11.73;;;12.90;99.90;;;;;;5054866;28;20447;-65
2021/10/08 00:13:42;;;;;;;21.67;12.20;;;12.90;99.90;;;;;;5053003;28;20423;-65
2021/10/08 00:16:09;;;;;;;20.60;12.80;;;12.90;99.90;;;;;;5036881;28;20459;-65
2021/10/08 00:18:36;;;;;;;28.47;13.10;;;12.70;99.90;;;;;;5053945;28;20420;-65
2021/10/08 00:21:03;;;;;;;17.50;13.23;;;12.60;99.90;;;;;;5054389;28;20756;-65
2021/10/08 00:23:29;;;;;;;35.93;13.50;;;12.60;99.90;;;;;;5036063;28;20451;-65
2021/10/08 00:25:55;;;;;;;17.07;12.03;;;12.60;99.90;;;;;;5054496;28;20425;-65
2021/10/08 00:28:21;;;;;;;15.20;12.80;;;12.60;99.90;;;;;;5054071;28;20235;-68
2021/10/08 00:30:47;;;;;;;16.10;13.30;;;12.60;99.90;;;;;;5054420;28;20181;-65
2021/10/08 00:33:13;;;;;;;32.40;12.50;;;12.60;99.90;;;;;;5054139;28;20427;-65
2021/10/08 00:35:39;;;;;;;19.30;12.00;;;12.60;99.90;;;;;;5053845;28;20460;-65
2021/10/08 00:38:06;;;;;;;23.30;12.80;;;12.60;99.90;;;;;;5054582;28;20504;-65
2021/10/08 00:40:38;;;;;;;15.07;11.37;;;12.60;99.90;;;;;;5053630;28;20175;-65
2021/10/08 00:43:04;;;;;;;14.40;11.57;;;12.60;99.90;;;;;;5054164;28;20459;-65
2021/10/08 00:45:30;;;;;;;21.57;12.83;;;12.60;99.90;;;;;;5053862;28;20418;-65
2021/10/08 00:48:01;;;;;;;21.90;13.13;;;12.60;99.90;;;;;;5053897;28;20912;-65
2021/10/08 00:50:27;;;;;;;28.77;12.63;;;12.70;99.90;;;;;;5053519;28;20400;-65
2021/10/08 00:52:53;;;;;;;13.57;11.93;;;12.70;99.90;;;;;;5053980;28;20402;-64
2021/10/08 00:55:19;;;;;;;16.73;11.93;;;12.60;99.90;;;;;;5054014;28;20545;-65
2021/10/08 00:57:46;;;;;;;18.30;12.40;;;12.60;99.90;;;;;;5053285;28;20422;-65
2021/10/08 01:00:13;;;;;;;27.70;12.87;;;12.60;99.90;;;;;;5053646;28;20425;-65
2021/10/08 01:02:39;;;;;;;21.60;11.60;;;12.60;99.90;;;;;;5053185;28;20410;-65
2021/10/08 01:05:05;;;;;;;31.80;12.33;;;12.70;99.90;;;;;;5053854;28;20412;-65
2021/10/08 01:07:31;;;;;;;30.53;12.20;;;12.60;99.90;;;;;;5053103;28;20483;-65
2021/10/08 01:09:57;;;;;;;17.87;12.47;;;12.60;99.90;;;;;;5053771;28;20435;-65
2021/10/08 01:12:23;;;;;;;15.07;11.60;;;12.60;99.90;;;;;;5053652;28;20182;-65
2021/10/08 01:14:49;;;;;;;19.47;12.00;;;12.60;99.90;;;;;;5053404;28;20332;-65
2021/10/08 01:17:17;;;;;;;14.90;11.83;;;12.60;99.90;;;;;;5053388;28;20793;-65
2021/10/08 01:19:43;;;;;;;17.93;11.07;;;12.60;99.90;;;;;;5052928;28;20288;-65
2021/10/08 01:22:09;;;;;;;15.10;11.10;;;12.60;99.90;;;;;;5053432;28;20417;-65
2021/10/08 01:24:35;;;;;;;24.90;10.10;;;12.60;99.90;;;;;;5034779;28;20542;-65
2021/10/08 01:27:03;;;;;;;11.30;10.10;;;12.60;99.90;;;;;;5053194;28;20192;-65
2021/10/08 01:29:29;;;;;;;13.30;10.23;;;12.60;99.90;;;;;;5052409;28;20415;-65
2021/10/08 01:31:55;;;;;;;13.67;10.83;;;12.60;99.90;;;;;;5053227;28;20822;-65
2021/10/08 01:34:21;;;;;;;15.57;11.43;;;12.60;99.90;;;;;;5052949;28;20456;-65
2021/10/08 01:36:46;;;;;;;19.40;11.27;;;12.60;99.90;;;;;;5034510;28;20531;-65
2021/10/08 01:39:12;;;;;;;13.93;10.23;;;12.60;99.90;;;;;;5053187;28;20261;-65
2021/10/08 01:41:38;;;;;;;10.43;9.40;;;12.70;99.90;;;;;;5052496;28;20178;-64
2021/10/08 01:44:04;;;;;;;12.73;9.93;;;12.70;99.90;;;;;;5053015;28;20776;-65
2021/10/08 01:46:29;;;;;;;13.23;9.60;;;12.70;99.90;;;;;;5052385;28;20540;-64
2021/10/08 01:48:55;;;;;;;11.97;10.77;;;12.70;99.90;;;;;;5052728;28;20430;-64
2021/10/08 01:51:21;;;;;;;12.77;9.90;;;12.70;99.90;;;;;;5052972;28;20185;-65
2021/10/08 01:53:46;;;;;;;30.10;9.93;;;12.70;99.90;;;;;;5052343;28;20191;-64
2021/10/08 01:56:12;;;;;;;15.17;10.27;;;12.70;99.90;;;;;;5035308;28;20210;-65
2021/10/08 01:58:38;;;;;;;34.73;10.90;;;12.70;99.90;;;;;;5052536;28;20621;-65
2021/10/08 02:01:04;;;;;;;27.27;11.37;;;12.70;99.90;;;;;;5052788;28;20175;-65
2021/10/08 02:03:29;;;;;;;20.30;10.57;;;12.70;99.90;;;;;;5051861;28;20241;-65
2021/10/08 02:05:55;;;;;;;36.13;11.53;;;12.60;99.90;;;;;;5052873;28;20179;-65
2021/10/08 02:08:21;;;;;;;12.07;10.80;;;12.60;99.90;;;;;;5052661;28;20448;-64
2021/10/08 02:10:47;;;;;;;23.13;9.60;;;12.60;99.90;;;;;;5052028;28;20369;-65
2021/10/08 02:13:12;;;;;;;13.40;10.30;;;12.60;99.90;;;;;;5052563;28;20185;-64
2021/10/08 02:15:38;;;;;;;13.40;10.57;;;12.50;99.90;;;;;;5051992;28;20181;-65
2021/10/08 02:18:04;;;;;;;11.63;10.50;;;12.50;99.90;;;;;;5052297;28;20175;-65
2021/10/08 02:20:30;;;;;;;22.63;9.20;;;12.60;99.90;;;;;;5051976;28;20205;-65
2021/10/08 02:22:55;;;;;;;10.57;9.57;;;12.60;99.90;;;;;;5052461;28;20243;-65
2021/10/08 02:25:21;;;;;;;16.03;9.50;;;12.50;99.90;;;;;;5052360;28;20737;-64
2021/10/08 02:27:47;;;;;;;13.50;9.20;;;12.50;99.90;;;;;;5051902;28;20173;-65
2021/10/08 02:30:13;;;;;;;10.70;9.60;;;12.50;99.90;;;;;;5052525;28;20178;-65
2021/10/08 02:32:39;;;;;;;15.73;10.10;;;12.50;99.90;;;;;;5051344;28;20175;-64
2021/10/08 02:35:05;;;;;;;12.57;10.67;;;12.50;99.90;;;;;;5052121;28;21005;-65
2021/10/08 02:37:31;;;;;;;34.63;10.07;;;12.50;99.90;;;;;;5053181;28;20240;-65
2021/10/08 02:39:57;;;;;;;20.87;9.43;;;12.50;99.90;;;;;;5056669;28;20405;-64
2021/10/08 02:42:23;;;;;;;31.37;11.13;;;12.50;99.90;;;;;;5056377;28;20412;-65
2021/10/08 02:44:48;;;;;;;34.03;10.33;;;12.50;99.90;;;;;;5055730;28;21086;-65
2021/10/08 02:47:14;;;;;;;30.93;10.77;;;12.50;99.90;;;;;;5038023;28;20420;-65
2021/10/08 02:49:40;;;;;;;15.23;10.37;;;12.40;99.90;;;;;;5037919;28;20256;-65
2021/10/08 02:52:06;;;;;;;15.60;10.20;;;12.40;99.90;;;;;;5039059;28;20197;-65
2021/10/08 02:54:32;;;;;;;27.37;10.33;;;12.40;99.90;;;;;;5036345;28;20662;-65
2021/10/08 02:56:58;;;;;;;34.70;10.67;;;12.40;99.90;;;;;;5040002;28;20916;-65
2021/10/08 02:59:23;;;;;;;10.47;9.20;;;12.40;99.90;;;;;;5036250;28;20421;-65
2021/10/08 03:01:49;;;;;;;14.63;9.13;;;12.40;99.90;;;;;;5050176;28;20189;-65
2021/10/08 03:04:15;;;;;;;11.50;9.40;;;12.40;99.90;;;;;;5055721;28;20286;-65
2021/10/08 03:06:40;;;;;;;10.80;9.43;;;12.40;99.90;;;;;;5041571;28;20635;-65
2021/10/08 03:09:06;;;;;;;11.00;9.30;;;12.40;99.90;;;;;;5036199;28;20629;-65
2021/10/08 03:11:32;;;;;;;11.20;10.00;;;12.40;99.90;;;;;;5047665;28;20187;-66
2021/10/08 03:13:58;;;;;;;9.03;8.13;;;12.40;99.90;;;;;;5055608;28;20210;-66
2021/10/08 03:16:23;;;;;;;26.47;8.70;;;12.40;99.90;;;;;;5055609;28;20926;-65
2021/10/08 03:18:49;;;;;;;32.90;9.47;;;12.40;99.90;;;;;;5046441;28;20183;-66
2021/10/08 03:21:15;;;;;;;17.23;8.80;;;12.40;99.90;;;;;;5042889;28;20182;-65
2021/10/08 03:23:40;;;;;;;16.57;8.17;;;12.20;99.90;;;;;;5035136;28;20209;-65
2021/10/08 03:26:06;;;;;;;14.53;7.77;;;12.20;99.90;;;;;;5035840;28;20186;-65
2021/10/08 03:28:32;;;;;;;20.03;7.97;;;12.20;99.90;;;;;;5035174;28;20261;-70
2021/10/08 03:30:58;;;;;;;9.00;8.10;;;12.10;99.90;;;;;;5035831;28;20175;-65
2021/10/08 03:33:24;;;;;;;15.73;7.63;;;12.00;99.90;;;;;;5035464;28;20194;-65
2021/10/08 03:35:50;;;;;;;8.27;7.47;;;11.90;99.90;;;;;;5042135;28;20432;-65
2021/10/08 03:38:18;;;;;;;13.03;7.40;;;11.90;99.90;;;;;;5055267;28;20221;-65
2021/10/08 03:41:19;;;;;;;15.70;7.93;;;11.90;99.90;;;;;;5054774;28;20509;-65
2021/10/08 03:43:37;;;;;;;10.43;6.83;;;11.90;99.90;;;;;;5050150;28;20605;-65
2021/10/08 03:46:07;;;;;;;7.20;6.50;;;11.90;99.90;;;;;;5055276;28;20423;-65
2021/10/08 03:51:03;;;;;;;8.87;7.97;;;11.90;99.90;;;;;;5054725;28;20423;-65
2021/10/08 03:53:30;;;;;;;9.93;7.97;;;11.90;99.90;;;;;;5054887;28;20176;-65
2021/10/08 03:55:56;;;;;;;23.60;8.00;;;12.00;99.90;;;;;;5054487;28;20407;-65
2021/10/08 03:58:22;;;;;;;10.30;8.03;;;12.00;99.90;;;;;;5055183;28;20773;-65
2021/10/08 04:00:48;;;;;;;31.73;9.40;;;12.00;99.90;;;;;;5054449;28;20400;-65
2021/10/08 04:03:14;;;;;;;14.83;9.00;;;12.10;99.90;;;;;;5054871;28;20201;-65
2021/10/08 04:05:39;;;;;;;10.40;9.30;;;12.10;99.90;;;;;;5053551;28;20524;-65
2021/10/08 04:08:05;;;;;;;36.50;8.73;;;12.10;99.90;;;;;;5053739;28;20651;-65
2021/10/08 04:10:31;;;;;;;38.63;9.33;;;12.10;99.90;;;;;;5054825;28;20177;-65
2021/10/08 04:12:56;;;;;;;17.97;8.50;;;12.00;99.90;;;;;;5054183;28;20212;-65
2021/10/08 04:15:22;;;;;;;12.43;8.40;;;11.90;99.90;;;;;;5054762;28;20189;-65
2021/10/08 04:17:48;;;;;;;10.60;8.20;;;11.80;99.90;;;;;;5053832;28;20636;-65
2021/10/08 04:20:14;;;;;;;36.33;8.10;;;11.80;99.90;;;;;;5054538;28;20262;-65
2021/10/08 04:22:40;;;;;;;10.27;8.63;;;11.80;99.90;;;;;;5053936;28;20440;-65
2021/10/08 04:25:06;;;;;;;41.33;9.80;;;11.70;99.90;;;;;;5054099;28;20629;-65
2021/10/08 04:27:32;;;;;;;17.13;8.67;;;11.70;99.90;;;;;;5054394;28;20246;-65
2021/10/08 04:29:58;;;;;;;53.17;10.60;;;11.60;99.90;;;;;;5053655;28;20428;-65
2021/10/08 04:32:23;;;;;;;21.47;9.03;;;11.60;99.90;;;;;;5054514;28;20652;-65
2021/10/08 04:34:49;;;;;;;19.37;10.60;;;11.40;99.90;;;;;;5053761;28;20214;-65
2021/10/08 04:37:15;;;;;;;25.30;9.00;;;11.40;99.90;;;;;;5054379;28;20264;-65
2021/10/08 04:39:40;;;;;;;17.27;11.40;;;11.30;99.90;;;;;;5053543;28;20174;-65
2021/10/08 04:42:06;;;;;;;20.60;12.43;;;11.30;99.90;;;;;;5054259;28;20179;-65
2021/10/08 04:44:33;;;;;;;19.60;7.43;;;11.40;99.90;;;;;;5053956;28;20197;-65
2021/10/08 04:46:59;;;;;;;33.73;10.47;;;11.40;99.90;;;;;;5052292;28;20645;-65
2021/10/08 04:49:26;;;;;;;16.30;10.73;;;11.40;99.90;;;;;;5054145;28;20801;-65
2021/10/08 04:51:51;;;;;;;13.40;9.03;;;11.40;99.90;;;;;;5053084;28;20432;-65
2021/10/08 04:54:17;;;;;;;15.20;7.00;;;11.50;99.90;;;;;;5053720;28;20420;-65
2021/10/08 04:56:43;;;;;;;36.73;10.20;;;11.50;99.90;;;;;;5035391;28;20177;-65
2021/10/08 04:59:09;;;;;;;17.03;8.33;;;11.30;99.90;;;;;;5053874;28;20413;-65
2021/10/08 05:01:34;;;;;;;10.87;7.90;;;11.20;99.90;;;;;;5052906;28;20223;-65
2021/10/08 05:04:00;;;;;;;12.70;8.57;;;11.30;99.90;;;;;;5052941;28;20194;-65
2021/10/08 05:06:26;;;;;;;10.20;8.00;;;11.20;99.90;;;;;;5053759;28;20263;-65
2021/10/08 05:08:52;;;;;;;10.20;7.63;;;11.20;99.90;;;;;;5052865;28;20176;-65
2021/10/08 05:11:18;;;;;;;11.80;10.10;;;11.30;99.90;;;;;;5053469;28;20570;-65
2021/10/08 05:13:43;;;;;;;10.77;8.47;;;11.40;99.90;;;;;;5052861;28;20519;-65
2021/10/08 05:16:10;;;;;;;8.23;6.97;;;11.40;99.90;;;;;;5053566;28;20176;-65
2021/10/08 05:18:35;;;;;;;8.30;6.93;;;11.50;99.90;;;;;;5052946;28;20539;-65
2021/10/08 05:21:01;;;;;;;7.60;7.00;;;11.60;99.90;;;;;;5052638;28;20401;-65
2021/10/08 05:23:27;;;;;;;7.83;6.83;;;11.70;99.90;;;;;;5053492;28;20304;-65
2021/10/08 05:25:53;;;;;;;7.47;6.67;;;11.80;99.90;;;;;;5052427;28;20470;-65
2021/10/08 05:28:19;;;;;;;9.80;8.80;;;11.90;99.90;;;;;;5053202;28;20772;-65
2021/10/08 05:30:45;;;;;;;5.97;5.37;;;11.90;99.90;;;;;;5051383;28;20177;-65
2021/10/08 05:33:11;;;;;;;7.27;6.53;;;11.90;99.90;;;;;;5053164;28;20192;-67
2021/10/08 05:35:37;;;;;;;10.00;7.33;;;12.00;99.90;;;;;;5032181;28;20233;-65
2021/10/08 05:38:05;;;;;;;24.83;8.83;;;12.00;99.90;;;;;;5033480;28;20429;-65
2021/10/08 05:40:31;;;;;;;46.53;9.30;;;12.00;99.90;;;;;;5052619;28;20178;-65
2021/10/08 05:42:56;;;;;;;53.17;9.37;;;11.90;99.90;;;;;;5051744;28;20504;-65
2021/10/08 05:45:22;;;;;;;34.73;8.63;;;11.80;99.90;;;;;;5052422;28;20498;-65
2021/10/08 05:47:48;;;;;;;39.20;7.73;;;11.70;99.90;;;;;;5051758;28;20181;-66
2021/10/08 05:50:19;;;;;;;28.43;7.93;;;11.60;99.90;;;;;;5052449;28;20698;-66
2021/10/08 05:52:45;;;;;;;38.03;7.43;;;11.50;99.90;;;;;;5040547;28;20220;-66
2021/10/08 05:55:11;;;;;;;11.07;7.13;;;11.50;99.90;;;;;;5034259;28;20476;-65
2021/10/08 05:57:37;;;;;;;16.63;8.10;;;11.50;99.90;;;;;;5034764;28;20993;-66
2021/10/08 06:00:05;;;;;;;18.90;8.30;;;11.40;99.90;;;;;;5031106;28;20256;-65
2021/10/08 06:02:30;;;;;;;8.33;7.43;;;11.40;99.90;;;;;;5031754;28;20186;-66
2021/10/08 06:04:56;;;;;;;8.63;7.00;;;11.50;99.90;;;;;;5030788;28;20811;-66
2021/10/08 06:07:22;;;;;;;13.00;7.10;;;11.50;99.90;;;;;;5031954;28;20184;-65
2021/10/08 06:09:47;;;;;;;12.50;8.17;;;11.60;99.90;;;;;;5033500;28;20177;-66
2021/10/08 06:12:14;;;;;;;9.63;6.00;;;11.60;99.90;;;;;;5047208;28;20181;-66
2021/10/08 06:14:40;;;;;;;8.93;6.40;;;11.60;99.90;;;;;;5052585;28;20205;-66
2021/10/08 06:17:06;;;;;;;12.83;9.30;;;11.60;99.90;;;;;;5043049;28;20455;-66
2021/10/08 06:19:32;;;;;;;16.57;6.87;;;11.70;99.90;;;;;;5032810;28;20974;-66
2021/10/08 06:21:57;;;;;;;11.57;6.80;;;11.70;99.90;;;;;;5045959;28;20177;-65
2021/10/08 06:24:23;;;;;;;7.17;6.47;;;11.80;99.90;;;;;;5043543;28;20226;-66
2021/10/08 06:26:49;;;;;;;7.53;6.50;;;11.80;99.90;;;;;;5042394;28;20264;-66
2021/10/08 06:29:15;;;;;;;7.80;5.80;;;11.90;99.90;;;;;;5052428;28;20172;-65
2021/10/08 06:31:40;;;;;;;16.93;6.30;;;11.90;99.90;;;;;;5034688;28;20208;-65
2021/10/08 06:34:06;;;;;;;8.07;7.30;;;11.80;99.90;;;;;;5050643;28;20697;-67
2021/10/08 06:36:32;;;;;;;7.30;6.70;;;12.00;99.90;;;;;;5051630;28;20181;-67
2021/10/08 06:38:58;;;;;;;14.03;6.80;;;12.40;99.90;;;;;;5051576;28;20252;-67
2021/10/08 06:41:23;;;;;;;8.73;7.33;;;12.80;99.90;;;;;;5047941;28;20174;-67
2021/10/08 06:43:49;;;;;;;10.23;5.67;;;13.30;99.90;;;;;;5047780;28;20203;-67
2021/10/08 06:46:15;;;;;;;7.23;6.50;;;13.60;99.90;;;;;;5041653;28;20511;-67
2021/10/08 06:48:40;;;;;;;7.13;6.53;;;14.00;99.90;;;;;;5036209;28;20180;-67
2021/10/08 06:51:06;;;;;;;7.43;6.60;;;14.20;99.90;;;;;;5030992;28;20178;-67
2021/10/08 06:53:32;;;;;;;8.93;7.00;;;14.40;99.90;;;;;;5045752;28;20179;-67
2021/10/08 06:55:59;;;;;;;8.80;7.90;;;14.60;99.50;;;;;;5046765;28;20174;-67
2021/10/08 06:58:24;;;;;;;8.90;7.80;;;14.80;99.30;;;;;;5048837;28;20193;-67
2021/10/08 07:00:54;;;;;;;8.60;7.80;;;14.90;98.90;;;;;;5030855;28;20417;-67
2021/10/08 07:03:21;;;;;;;16.97;9.70;;;15.00;98.30;;;;;;5031372;28;20547;-67
2021/10/08 07:05:47;;;;;;;18.53;9.30;;;15.20;98.10;;;;;;5031018;28;20417;-67
2021/10/08 07:08:13;;;;;;;12.60;8.90;;;15.30;97.90;;;;;;5031460;28;20509;-67
2021/10/08 07:10:39;;;;;;;46.73;9.40;;;15.40;97.40;;;;;;5033202;28;20822;-67
2021/10/08 07:13:06;;;;;;;20.77;10.70;;;15.50;97.20;;;;;;5045520;28;20193;-67
2021/10/08 07:15:33;;;;;;;18.17;11.40;;;15.60;97.00;;;;;;5050222;28;20413;-67
2021/10/08 07:17:59;;;;;;;18.40;11.17;;;15.60;96.60;;;;;;5049477;28;20459;-67
2021/10/08 07:20:27;;;;;;;13.40;12.00;;;15.70;96.90;;;;;;5049947;28;20730;-67
2021/10/08 07:22:54;;;;;;;23.30;12.17;;;15.80;96.80;;;;;;5049368;28;20503;-67
2021/10/08 07:25:23;;;;;;;17.83;11.33;;;15.70;96.00;;;;;;5049125;28;20419;-67
2021/10/08 07:27:49;;;;;;;17.00;12.87;;;15.60;96.10;;;;;;5034279;28;20430;-67
2021/10/08 07:30:16;;;;;;;15.70;12.47;;;15.60;96.40;;;;;;5035238;28;20419;-67
2021/10/08 07:32:42;;;;;;;17.87;11.77;;;15.70;96.80;;;;;;5035198;28;20185;-67
2021/10/08 07:35:09;;;;;;;14.00;11.43;;;15.80;97.00;;;;;;5034734;28;20466;-67
2021/10/08 07:37:36;;;;;;;20.63;11.53;;;15.80;97.20;;;;;;5036257;28;20469;-67
2021/10/08 07:40:04;;;;;;;37.53;12.43;;;15.90;97.80;;;;;;5049862;28;20419;-67
2021/10/08 07:42:29;;;;;;;18.57;11.70;;;15.80;96.10;;;;;;5055290;28;20418;-67
2021/10/08 07:44:55;;;;;;;14.20;12.17;;;15.70;96.30;;;;;;5054594;28;20828;-67
2021/10/08 07:47:21;;;;;;;13.87;11.70;;;15.70;96.70;;;;;;5055167;28;20210;-67
2021/10/08 07:49:47;;;;;;;12.60;11.30;;;15.80;96.60;;;;;;5054523;28;20175;-67
2021/10/08 07:52:13;;;;;;;14.83;11.43;;;15.80;96.70;;;;;;5054417;28;20481;-67
2021/10/08 07:54:39;;;;;;;20.93;11.33;;;15.90;96.90;;;;;;5054490;28;22290;-67
2021/10/08 07:57:05;;;;;;;14.30;11.30;;;16.00;97.00;;;;;;5054072;28;20763;-67
2021/10/08 07:59:31;;;;;;;14.97;10.70;;;16.00;96.60;;;;;;5054727;28;20424;-67
2021/10/08 08:01:57;;;;;;;20.80;11.80;;;16.10;96.50;;;;;;5054207;28;20863;-67
2021/10/08 08:04:23;;;;;;;30.53;11.17;;;16.10;96.20;;;;;;5036700;28;20222;-67
2021/10/08 08:06:50;;;;;;;14.50;11.23;;;16.10;96.00;;;;;;5053064;28;20179;-67
2021/10/08 08:09:15;;;;;;;18.27;11.00;;;15.90;95.90;;;;;;5041115;28;20535;-67
2021/10/08 08:11:42;;;;;;;21.87;11.30;;;15.80;96.60;;;;;;5051664;28;20418;-67
2021/10/08 08:14:08;;;;;;;11.90;10.73;;;15.80;96.70;;;;;;5043705;28;20187;-67
2021/10/08 08:16:34;;;;;;;12.80;10.70;;;15.80;96.70;;;;;;5054762;28;20774;-67
2021/10/08 08:19:00;;;;;;;13.80;12.40;;;15.80;96.80;;;;;;5054088;28;20183;-67
2021/10/08 08:21:25;;;;;;;14.50;11.87;;;15.90;96.90;;;;;;5036952;28;20463;-67
2021/10/08 08:23:51;;;;;;;19.97;13.83;;;16.10;97.00;;;;;;5036027;28;20448;-67
2021/10/08 08:26:17;;;;;;;13.10;11.73;;;16.00;96.40;;;;;;5042321;28;20195;-67
2021/10/08 08:28:43;;;;;;;17.40;13.00;;;15.90;96.70;;;;;;5034578;28;20175;-67
2021/10/08 08:31:09;;;;;;;17.70;14.80;;;15.90;97.00;;;;;;5033803;28;20268;-67
2021/10/08 08:33:36;;;;;;;15.83;12.10;;;16.00;97.40;;;;;;5046061;28;20521;-68
2021/10/08 08:36:03;;;;;;;11.97;10.73;;;16.00;97.10;;;;;;5052232;28;20509;-67
2021/10/08 08:38:29;;;;;;;14.63;11.77;;;16.10;97.50;;;;;;5050630;28;20440;-67
2021/10/08 08:40:55;;;;;;;12.30;10.57;;;16.30;97.40;;;;;;5034262;28;20452;-68
2021/10/08 08:43:21;;;;;;;12.77;11.47;;;16.40;97.20;;;;;;5053505;28;20494;-67
2021/10/08 08:45:46;;;;;;;12.47;11.27;;;16.50;96.90;;;;;;5052606;28;20523;-68
2021/10/08 08:48:13;;;;;;;10.77;9.70;;;16.60;96.50;;;;;;5052436;28;20268;-67
2021/10/08 08:50:44;;;;;;;10.73;9.80;;;16.60;96.20;;;;;;5053497;28;20173;-67
2021/10/08 08:53:10;;;;;;;12.73;11.40;;;16.60;96.20;;;;;;5050553;28;20471;-63
2021/10/08 08:55:36;;;;;;;13.97;12.50;;;16.60;96.40;;;;;;5053895;28;20745;-63
2021/10/08 08:58:03;;;;;;;16.03;12.50;;;16.50;97.10;;;;;;5053446;28;20435;-63
2021/10/08 09:00:29;;;;;;;13.57;12.30;;;16.40;97.70;;;;;;5053885;28;20465;-63
2021/10/08 09:03:00;;;;;;;15.40;13.10;;;16.30;98.30;;;;;;5051231;28;20419;-63
2021/10/08 09:05:35;;;;;;;14.17;12.77;;;16.20;98.80;;;;;;5053611;28;20408;-63
2021/10/08 09:08:07;;;;;;;17.93;13.77;;;16.10;99.50;;;;;;5053219;28;20407;-63
2021/10/08 09:10:35;;;;;;;15.13;13.33;;;16.10;99.90;;;;;;5046987;28;20506;-63
2021/10/08 09:13:03;;;;;;;14.17;12.67;;;16.00;99.60;;;;;;5053094;28;20800;-63
2021/10/08 09:15:42;;;;;;;11.07;9.97;;;16.00;99.90;;;;;;5053678;28;20419;-63
2021/10/08 09:18:12;;;;;;;11.60;10.40;;;16.00;99.90;;;;;;5043544;28;20855;-63
2021/10/08 09:20:39;;;;;;;10.50;9.43;;;15.90;99.90;;;;;;5033499;28;20897;-63
2021/10/08 09:23:06;;;;;;;13.07;12.07;;;15.90;99.90;;;;;;5045506;28;20500;-63
2021/10/08 09:25:35;;;;;;;10.40;9.40;;;16.00;99.90;;;;;;5053520;28;20400;-63
2021/10/08 09:28:11;;;;;;;8.17;7.40;;;16.10;99.90;;;;;;5052784;28;20409;-64
2021/10/08 09:30:46;;;;;;;8.50;7.70;;;16.20;99.90;;;;;;5053097;28;20411;-64
2021/10/08 09:33:19;;;;;;;8.00;7.30;;;16.40;99.90;;;;;;5052765;28;20404;-64
2021/10/08 09:35:47;;;;;;;10.47;9.70;;;16.60;99.90;;;;;;5053478;28;20428;-65
2021/10/08 09:38:15;;;;;;;9.90;9.10;;;16.80;99.90;;;;;;5052396;28;20879;-64
2021/10/08 09:40:51;;;;;;;8.23;7.43;;;17.00;99.90;;;;;;5052563;28;20971;-64
2021/10/08 09:43:23;;;;;;;11.33;10.13;;;17.30;99.90;;;;;;5052496;28;20443;-63
2021/10/08 09:45:51;;;;;;;9.23;8.43;;;17.40;99.70;;;;;;5052316;28;20420;-64
2021/10/08 09:48:30;;;;;;;9.13;7.93;;;17.60;99.80;;;;;;5052916;28;20412;-64
2021/10/08 09:51:17;;;;;;;7.70;7.10;;;17.90;99.70;;;;;;5052499;28;20397;-64
2021/10/08 09:53:48;;;;;;;9.90;9.10;;;18.20;98.70;;;;;;5035126;28;20499;-64
2021/10/08 09:56:39;;;;;;;9.57;8.77;;;18.40;96.50;;;;;;5051997;28;20420;-64
2021/10/08 09:59:13;;;;;;;8.93;8.00;;;18.40;96.00;;;;;;5052311;28;20438;-64
2021/10/08 10:01:40;;;;;;;8.57;7.87;;;18.60;96.80;;;;;;5052830;28;20451;-63
2021/10/08 10:04:10;;;;;;;11.60;10.90;;;18.80;97.00;;;;;;5051889;28;20467;-63
2021/10/08 10:06:37;;;;;;;9.70;8.70;;;18.90;95.30;;;;;;5052724;28;20834;-63
2021/10/08 10:09:06;;;;;;;8.33;7.53;;;19.10;95.00;;;;;;5051783;28;20754;-63
2021/10/08 10:11:33;;;;;;;10.47;9.67;;;19.30;95.40;;;;;;5052757;28;20879;-63
2021/10/08 10:13:59;;;;;;;9.87;9.07;;;19.40;94.50;;;;;;5052037;28;20511;-63
2021/10/08 10:16:27;;;;;;;12.03;8.80;;;19.60;95.60;;;;;;5052978;28;20432;-63
2021/10/08 10:18:55;;;;;;;11.87;10.77;;;19.80;93.50;;;;;;5051694;28;20412;-63
2021/10/08 10:21:26;;;;;;;8.23;7.53;;;19.90;94.90;;;;;;5052163;28;20452;-63
2021/10/08 10:23:57;;;;;;;8.83;7.97;;;20.20;94.00;;;;;;5052417;28;20451;-63
2021/10/08 10:26:24;;;;;;;11.33;10.47;;;20.40;93.60;;;;;;5052240;28;20404;-63
2021/10/08 10:28:50;;;;;;;12.07;11.07;;;20.70;92.70;;;;;;5052354;28;20538;-63
2021/10/08 10:31:18;;;;;;;8.77;6.90;;;20.90;91.70;;;;;;5051826;28;20502;-65
2021/10/08 10:33:45;;;;;;;9.67;7.63;;;20.90;90.70;;;;;;5052090;28;20851;-63
2021/10/08 10:36:24;;;;;;;9.37;8.67;;;21.10;91.60;;;;;;5051114;28;20873;-63
2021/10/08 10:38:51;;;;;;;10.57;9.70;;;21.30;90.90;;;;;;5051880;28;20520;-63
2021/10/08 10:41:16;;;;;;;9.50;8.70;;;21.30;90.00;;;;;;5051004;28;20424;-62
2021/10/08 10:43:49;;;;;;;8.80;8.00;;;21.20;90.70;;;;;;5052318;28;20479;-63
2021/10/08 10:52:03;;;;;;;9.10;8.40;;;21.70;87.90;;;;;;5051914;28;20396;-63
2021/10/08 10:54:34;;;;;;;8.87;8.00;;;21.50;90.10;;;;;;5052202;28;20441;-63
2021/10/08 10:57:01;;;;;;;10.07;9.33;;;21.80;90.20;;;;;;5051605;28;20864;-63
2021/10/08 10:59:28;;;;;;;8.60;8.00;;;21.90;89.70;;;;;;5054819;28;20730;-63
2021/10/08 11:02:12;;;;;;;9.97;9.27;;;22.20;89.90;;;;;;5056309;28;20400;-62
2021/10/08 11:04:39;;;;;;;9.97;9.17;;;22.20;85.40;;;;;;5056234;28;20505;-63
2021/10/08 11:07:07;;;;;;;7.60;7.00;;;22.20;88.30;;;;;;5055513;28;20412;-63
2021/10/08 11:09:33;;;;;;;7.97;7.37;;;22.50;88.80;;;;;;5056044;28;20425;-63
2021/10/08 11:12:27;;;;;;;8.50;7.80;;;22.70;86.50;;;;;;5055468;28;20738;-63
2021/10/08 11:15:32;;;;;;;11.77;10.87;;;22.80;86.90;;;;;;5055716;28;20412;-63
2021/10/08 11:17:59;;;;;;;8.50;7.90;;;23.00;86.70;;;;;;4954931;29;21039;-63
2021/10/08 11:20:25;;;;;;;7.43;6.87;;;23.10;84.40;;;;;;4955437;29;20416;-63
2021/10/08 11:22:52;;;;;;;7.50;6.80;;;22.90;80.00;;;;;;5003844;28;20949;-63
2021/10/08 11:25:18;;;;;;;7.70;7.10;;;22.70;81.60;;;;;;5055080;28;20236;-62
2021/10/08 11:27:48;;;;;;;8.10;7.40;;;22.70;82.10;;;;;;5055742;28;20396;-63
2021/10/08 11:30:14;;;;;;;7.80;7.30;;;22.70;82.90;;;;;;5055162;28;20449;-63
2021/10/08 11:32:48;;;;;;;8.10;7.43;;;22.80;82.80;;;;;;5055662;28;20876;-63
2021/10/08 11:35:19;;;;;;;7.90;7.30;;;22.90;83.70;;;;;;5053748;28;20220;-63
2021/10/08 11:37:47;;;;;;;6.93;6.40;;;23.10;82.00;;;;;;5054467;28;20442;-63
2021/10/08 11:40:15;;;;;;;6.83;6.40;;;23.10;83.70;;;;;;5053848;28;20745;-63
2021/10/08 11:42:49;;;;;;;10.30;7.00;;;23.20;81.70;;;;;;5054242;28;20462;-63
2021/10/08 11:45:17;;;;;;;6.70;6.30;;;23.30;83.40;;;;;;5053597;28;20427;-63
2021/10/08 11:50:40;;;;;;;8.80;6.37;;;23.20;80.70;;;;;;5053547;28;20418;-63
2021/10/08 11:53:06;;;;;;;5.97;5.43;;;23.10;81.00;;;;;;5053385;28;20174;-63
2021/10/08 11:55:38;;;;;;;8.30;7.70;;;22.80;82.30;;;;;;5053905;28;20400;-63
2021/10/08 11:58:07;;;;;;;5.47;4.97;;;22.50;82.50;;;;;;5053424;28;20476;-63
2021/10/08 12:00:43;;;;;;;7.40;6.90;;;22.50;83.90;;;;;;5053427;28;20426;-64
2021/10/08 12:03:12;;;;;;;7.00;6.40;;;22.30;83.20;;;;;;5051897;28;20774;-63
2021/10/08 12:05:44;;;;;;;9.90;9.20;;;22.20;84.30;;;;;;5047173;28;20435;-63
2021/10/08 12:08:13;;;;;;;7.43;6.83;;;22.10;85.20;;;;;;5049367;28;20814;-63
2021/10/08 12:10:49;;;;;;;9.67;8.97;;;22.00;85.80;;;;;;5045211;28;20429;-63
2021/10/08 12:13:15;;;;;;;7.20;6.60;;;21.80;85.30;;;;;;5032971;28;20403;-63
2021/10/08 12:15:42;;;;;;;9.17;8.67;;;21.60;86.30;;;;;;5042572;28;20967;-63
2021/10/08 12:18:14;;;;;;;7.10;6.40;;;21.40;87.40;;;;;;5053078;28;20261;-63
2021/10/08 12:20:40;;;;;;;8.03;7.50;;;21.30;88.60;;;;;;5053639;28;20400;-63
2021/10/08 12:23:24;;;;;;;8.17;7.67;;;21.20;88.10;;;;;;5048555;28;20777;-63
2021/10/08 12:25:52;;;;;;;7.07;6.53;;;21.00;88.30;;;;;;5019878;28;20269;-63
2021/10/08 12:28:20;;;;;;;9.20;8.50;;;20.90;90.20;;;;;;5035627;28;20477;-63
2021/10/08 12:31:16;;;;;;;8.07;7.33;;;20.80;90.40;;;;;;5053416;28;20436;-63
2021/10/08 12:33:43;;;;;;;10.50;9.80;;;20.70;90.30;;;;;;4978588;28;1073406;-63
2021/10/08 12:36:29;;;;;;;8.47;7.77;;;20.50;90.40;;;;;;5033459;28;20187;-63
2021/10/08 12:39:00;;;;;;;7.50;6.80;;;20.40;90.90;;;;;;5052306;28;20495;-63
2021/10/08 12:41:47;;;;;;;7.40;6.83;;;20.40;91.80;;;;;;5050076;28;20503;-63
2021/10/08 12:44:23;;;;;;;10.40;9.60;;;20.40;91.90;;;;;;5043805;28;20790;-63
2021/10/08 12:50:00;;;;;;;8.77;7.97;;;20.20;92.20;;;;;;5033628;28;20759;-64
2021/10/08 12:52:41;;;;;;;9.97;9.07;;;20.20;92.50;;;;;;5045883;28;20416;-64